Johnson, Nebraska
Current Conditions -  °F | °C
As of 2:15 PM on Friday 21 Nov 2014 (Local Time) from KAFK Reporting Station
Overcast Overcast  
Wind Chill: 35°   Ceiling: 1400
Heat Index: 40°   Visibility: 10mi
Dew Point: 21°   Wind: 9mph
Humidity: 46%   Direction: 140°SE
Pressure: 30.08"   Gusts: NA
Location:  40.41°N, 96°W
Report Text: KAFK 212015Z AUTO 14008KT 10SM OVC014 05/M06 A3008 RMK AO2 T00471060
Loading
Personal Weather Stations






























Interactive Weather Map New forecast layout! Learn more

10-Day Weather Forecast

Advertisements
Track Severe Weather on mobile